sensor_id;sensor_type;location;lat;lon;timestamp;P1;durP1;ratioP1;P2;durP2;ratioP2
12976;SDS011;6553;48.412;9.514;2022-10-04T00:03:05;4.20;;;2.10;;
12976;SDS011;6553;48.412;9.514;2022-10-04T00:05:51;2.78;;;2.10;;
12976;SDS011;6553;48.412;9.514;2022-10-04T00:08:25;2.97;;;1.98;;
12976;SDS011;6553;48.412;9.514;2022-10-04T00:13:49;3.30;;;2.08;;
12976;SDS011;6553;48.412;9.514;2022-10-04T00:16:25;2.47;;;1.90;;
12976;SDS011;6553;48.412;9.514;2022-10-04T00:24:29;5.15;;;2.40;;
12976;SDS011;6553;48.412;9.514;2022-10-04T00:37:57;3.33;;;1.73;;
12976;SDS011;6553;48.412;9.514;2022-10-04T00:43:27;2.47;;;1.73;;
12976;SDS011;6553;48.412;9.514;2022-10-04T00:46:05;3.55;;;1.75;;
12976;SDS011;6553;48.412;9.514;2022-10-04T00:48:47;2.58;;;1.80;;
12976;SDS011;6553;48.412;9.514;2022-10-04T00:51:26;3.60;;;2.03;;
12976;SDS011;6553;48.412;9.514;2022-10-04T00:56:42;3.45;;;2.13;;
12976;SDS011;6553;48.412;9.514;2022-10-04T00:59:31;3.03;;;1.77;;
12976;SDS011;6553;48.412;9.514;2022-10-04T01:02:14;4.00;;;1.98;;
12976;SDS011;6553;48.412;9.514;2022-10-04T01:04:53;3.63;;;1.70;;
12976;SDS011;6553;48.412;9.514;2022-10-04T01:07:43;2.10;;;1.65;;
12976;SDS011;6553;48.412;9.514;2022-10-04T01:10:18;3.58;;;1.70;;
12976;SDS011;6553;48.412;9.514;2022-10-04T01:13:08;3.10;;;1.95;;
12976;SDS011;6553;48.412;9.514;2022-10-04T01:18:34;2.08;;;1.70;;
12976;SDS011;6553;48.412;9.514;2022-10-04T01:21:04;1.83;;;1.73;;
12976;SDS011;6553;48.412;9.514;2022-10-04T01:31:43;1.83;;;1.70;;
12976;SDS011;6553;48.412;9.514;2022-10-04T01:34:13;2.83;;;1.88;;
12976;SDS011;6553;48.412;9.514;2022-10-04T01:36:43;1.92;;;1.67;;
12976;SDS011;6553;48.412;9.514;2022-10-04T01:39:11;2.00;;;1.60;;
12976;SDS011;6553;48.412;9.514;2022-10-04T01:41:42;2.53;;;1.70;;
12976;SDS011;6553;48.412;9.514;2022-10-04T01:48:00;2.00;;;1.90;;
12976;SDS011;6553;48.412;9.514;2022-10-04T01:50:42;1.83;;;1.58;;
12976;SDS011;6553;48.412;9.514;2022-10-04T01:53:30;2.70;;;1.80;;
12976;SDS011;6553;48.412;9.514;2022-10-04T01:56:15;3.15;;;2.00;;
12976;SDS011;6553;48.412;9.514;2022-10-04T01:58:48;2.53;;;1.65;;
12976;SDS011;6553;48.412;9.514;2022-10-04T02:01:46;1.85;;;1.50;;
12976;SDS011;6553;48.412;9.514;2022-10-04T02:04:33;3.30;;;1.52;;
12976;SDS011;6553;48.412;9.514;2022-10-04T02:07:08;3.33;;;1.83;;
12976;SDS011;6553;48.412;9.514;2022-10-04T02:09:38;2.20;;;1.70;;
12976;SDS011;6553;48.412;9.514;2022-10-04T02:14:45;2.92;;;1.73;;
12976;SDS011;6553;48.412;9.514;2022-10-04T02:17:18;2.90;;;1.70;;
12976;SDS011;6553;48.412;9.514;2022-10-04T02:19:51;1.98;;;1.77;;
12976;SDS011;6553;48.412;9.514;2022-10-04T02:22:17;2.80;;;1.35;;
12976;SDS011;6553;48.412;9.514;2022-10-04T02:24:45;2.08;;;1.60;;
12976;SDS011;6553;48.412;9.514;2022-10-04T02:27:14;1.60;;;1.38;;
12976;SDS011;6553;48.412;9.514;2022-10-04T02:29:40;1.92;;;1.65;;
12976;SDS011;6553;48.412;9.514;2022-10-04T02:32:07;2.47;;;1.50;;
12976;SDS011;6553;48.412;9.514;2022-10-04T02:34:53;1.75;;;1.50;;
12976;SDS011;6553;48.412;9.514;2022-10-04T02:37:24;2.20;;;2.00;;
12976;SDS011;6553;48.412;9.514;2022-10-04T02:39:53;2.00;;;1.75;;
12976;SDS011;6553;48.412;9.514;2022-10-04T02:45:40;1.65;;;1.30;;
12976;SDS011;6553;48.412;9.514;2022-10-04T02:53:59;1.90;;;1.70;;
12976;SDS011;6553;48.412;9.514;2022-10-04T02:56:43;2.28;;;1.52;;
12976;SDS011;6553;48.412;9.514;2022-10-04T02:59:13;1.60;;;1.50;;
12976;SDS011;6553;48.412;9.514;2022-10-04T03:01:47;2.13;;;1.50;;
12976;SDS011;6553;48.412;9.514;2022-10-04T03:04:20;1.58;;;1.48;;
12976;SDS011;6553;48.412;9.514;2022-10-04T03:06:52;1.42;;;1.33;;
12976;SDS011;6553;48.412;9.514;2022-10-04T03:09:20;2.28;;;1.50;;
12976;SDS011;6553;48.412;9.514;2022-10-04T03:11:48;1.73;;;1.35;;
12976;SDS011;6553;48.412;9.514;2022-10-04T03:14:20;2.00;;;1.48;;
12976;SDS011;6553;48.412;9.514;2022-10-04T03:16:50;2.72;;;1.73;;
12976;SDS011;6553;48.412;9.514;2022-10-04T03:19:19;1.67;;;1.58;;
12976;SDS011;6553;48.412;9.514;2022-10-04T03:21:50;1.50;;;1.40;;
12976;SDS011;6553;48.412;9.514;2022-10-04T03:24:28;3.00;;;1.73;;
12976;SDS011;6553;48.412;9.514;2022-10-04T03:26:59;1.75;;;1.42;;
12976;SDS011;6553;48.412;9.514;2022-10-04T03:29:31;1.95;;;1.48;;
12976;SDS011;6553;48.412;9.514;2022-10-04T03:31:59;2.13;;;1.80;;
12976;SDS011;6553;48.412;9.514;2022-10-04T03:34:37;1.95;;;1.75;;
12976;SDS011;6553;48.412;9.514;2022-10-04T03:37:11;1.60;;;1.50;;
12976;SDS011;6553;48.412;9.514;2022-10-04T03:39:42;1.92;;;1.63;;
12976;SDS011;6553;48.412;9.514;2022-10-04T03:42:19;1.60;;;1.50;;
12976;SDS011;6553;48.412;9.514;2022-10-04T03:44:50;2.70;;;1.23;;
12976;SDS011;6553;48.412;9.514;2022-10-04T03:47:24;1.60;;;1.50;;
12976;SDS011;6553;48.412;9.514;2022-10-04T03:50:10;2.20;;;1.60;;
12976;SDS011;6553;48.412;9.514;2022-10-04T03:52:45;2.38;;;1.60;;
12976;SDS011;6553;48.412;9.514;2022-10-04T03:55:18;2.47;;;1.60;;
12976;SDS011;6553;48.412;9.514;2022-10-04T03:57:49;2.15;;;1.60;;
12976;SDS011;6553;48.412;9.514;2022-10-04T04:00:16;2.03;;;1.60;;
12976;SDS011;6553;48.412;9.514;2022-10-04T04:02:45;1.77;;;1.67;;
12976;SDS011;6553;48.412;9.514;2022-10-04T04:05:56;1.90;;;1.70;;
12976;SDS011;6553;48.412;9.514;2022-10-04T04:08:25;1.75;;;1.65;;
12976;SDS011;6553;48.412;9.514;2022-10-04T04:10:58;2.33;;;1.77;;
12976;SDS011;6553;48.412;9.514;2022-10-04T04:13:29;2.53;;;1.80;;
12976;SDS011;6553;48.412;9.514;2022-10-04T04:16:17;2.33;;;1.77;;
12976;SDS011;6553;48.412;9.514;2022-10-04T04:18:50;2.20;;;1.98;;
12976;SDS011;6553;48.412;9.514;2022-10-04T04:21:19;2.00;;;1.90;;
12976;SDS011;6553;48.412;9.514;2022-10-04T04:23:58;2.28;;;1.80;;
12976;SDS011;6553;48.412;9.514;2022-10-04T04:29:20;2.90;;;1.90;;
12976;SDS011;6553;48.412;9.514;2022-10-04T04:32:07;2.60;;;1.70;;
12976;SDS011;6553;48.412;9.514;2022-10-04T04:34:50;1.90;;;1.70;;
12976;SDS011;6553;48.412;9.514;2022-10-04T04:37:22;2.03;;;1.85;;
12976;SDS011;6553;48.412;9.514;2022-10-04T04:39:49;2.78;;;1.58;;
12976;SDS011;6553;48.412;9.514;2022-10-04T04:45:02;2.63;;;1.50;;
12976;SDS011;6553;48.412;9.514;2022-10-04T04:47:52;2.30;;;2.00;;
12976;SDS011;6553;48.412;9.514;2022-10-04T04:50:22;2.30;;;2.00;;
12976;SDS011;6553;48.412;9.514;2022-10-04T04:53:06;3.33;;;2.17;;
12976;SDS011;6553;48.412;9.514;2022-10-04T04:55:47;2.97;;;1.77;;
12976;SDS011;6553;48.412;9.514;2022-10-04T04:58:23;4.90;;;2.00;;
12976;SDS011;6553;48.412;9.514;2022-10-04T05:00:58;7.40;;;2.20;;
12976;SDS011;6553;48.412;9.514;2022-10-04T05:03:30;4.72;;;2.25;;
12976;SDS011;6553;48.412;9.514;2022-10-04T05:05:58;4.30;;;2.45;;
12976;SDS011;6553;48.412;9.514;2022-10-04T05:08:29;6.95;;;1.95;;
12976;SDS011;6553;48.412;9.514;2022-10-04T05:11:04;6.50;;;2.33;;
12976;SDS011;6553;48.412;9.514;2022-10-04T05:13:38;5.82;;;1.90;;
12976;SDS011;6553;48.412;9.514;2022-10-04T05:16:16;7.25;;;2.30;;
12976;SDS011;6553;48.412;9.514;2022-10-04T05:19:05;3.40;;;1.90;;
12976;SDS011;6553;48.412;9.514;2022-10-04T05:21:44;6.28;;;2.30;;
12976;SDS011;6553;48.412;9.514;2022-10-04T05:24:19;7.40;;;2.10;;
12976;SDS011;6553;48.412;9.514;2022-10-04T05:26:58;4.95;;;2.17;;
12976;SDS011;6553;48.412;9.514;2022-10-04T05:29:32;5.20;;;1.95;;
12976;SDS011;6553;48.412;9.514;2022-10-04T05:34:38;3.53;;;2.25;;
12976;SDS011;6553;48.412;9.514;2022-10-04T05:37:21;4.75;;;2.20;;
12976;SDS011;6553;48.412;9.514;2022-10-04T05:42:53;4.05;;;2.17;;
12976;SDS011;6553;48.412;9.514;2022-10-04T05:45:27;2.75;;;2.20;;
12976;SDS011;6553;48.412;9.514;2022-10-04T05:47:56;3.45;;;1.90;;
12976;SDS011;6553;48.412;9.514;2022-10-04T05:56:08;4.57;;;2.08;;
12976;SDS011;6553;48.412;9.514;2022-10-04T06:05:18;5.68;;;2.20;;
12976;SDS011;6553;48.412;9.514;2022-10-04T06:08:12;3.28;;;2.45;;
12976;SDS011;6553;48.412;9.514;2022-10-04T06:22:47;3.25;;;2.30;;
12976;SDS011;6553;48.412;9.514;2022-10-04T06:25:26;2.72;;;2.35;;
12976;SDS011;6553;48.412;9.514;2022-10-04T06:52:37;2.22;;;1.98;;
12976;SDS011;6553;48.412;9.514;2022-10-04T06:56:07;2.15;;;1.95;;
12976;SDS011;6553;48.412;9.514;2022-10-04T07:01:55;2.25;;;1.88;;
12976;SDS011;6553;48.412;9.514;2022-10-04T07:04:34;5.18;;;2.10;;
12976;SDS011;6553;48.412;9.514;2022-10-04T07:07:33;3.00;;;1.80;;
12976;SDS011;6553;48.412;9.514;2022-10-04T07:18:24;4.00;;;2.00;;
12976;SDS011;6553;48.412;9.514;2022-10-04T07:21:09;2.45;;;1.75;;
12976;SDS011;6553;48.412;9.514;2022-10-04T07:23:55;4.03;;;2.10;;
12976;SDS011;6553;48.412;9.514;2022-10-04T07:29:16;3.05;;;1.80;;
12976;SDS011;6553;48.412;9.514;2022-10-04T07:34:44;2.08;;;1.60;;
12976;SDS011;6553;48.412;9.514;2022-10-04T07:37:19;2.38;;;1.92;;
12976;SDS011;6553;48.412;9.514;2022-10-04T07:40:29;2.95;;;1.80;;
12976;SDS011;6553;48.412;9.514;2022-10-04T07:42:59;3.17;;;2.30;;
12976;SDS011;6553;48.412;9.514;2022-10-04T07:45:39;1.88;;;1.70;;
12976;SDS011;6553;48.412;9.514;2022-10-04T07:48:16;1.98;;;1.60;;
12976;SDS011;6553;48.412;9.514;2022-10-04T07:53:37;2.25;;;1.80;;
12976;SDS011;6553;48.412;9.514;2022-10-04T07:56:26;2.28;;;1.65;;
12976;SDS011;6553;48.412;9.514;2022-10-04T07:59:21;2.55;;;1.80;;
12976;SDS011;6553;48.412;9.514;2022-10-04T08:16:02;2.22;;;1.63;;
12976;SDS011;6553;48.412;9.514;2022-10-04T08:18:45;2.10;;;1.80;;
12976;SDS011;6553;48.412;9.514;2022-10-04T08:21:33;1.77;;;1.60;;
12976;SDS011;6553;48.412;9.514;2022-10-04T08:27:32;1.60;;;1.50;;
12976;SDS011;6553;48.412;9.514;2022-10-04T08:30:27;2.05;;;1.88;;
12976;SDS011;6553;48.412;9.514;2022-10-04T08:39:40;2.53;;;1.85;;
12976;SDS011;6553;48.412;9.514;2022-10-04T08:45:59;1.40;;;1.30;;
12976;SDS011;6553;48.412;9.514;2022-10-04T08:51:45;1.70;;;1.60;;
12976;SDS011;6553;48.412;9.514;2022-10-04T09:10:35;3.22;;;1.63;;
12976;SDS011;6553;48.412;9.514;2022-10-04T09:13:32;1.92;;;1.52;;
12976;SDS011;6553;48.412;9.514;2022-10-04T09:16:47;1.92;;;1.58;;
12976;SDS011;6553;48.412;9.514;2022-10-04T09:59:04;3.15;;;1.83;;
12976;SDS011;6553;48.412;9.514;2022-10-04T10:05:38;3.47;;;1.90;;
12976;SDS011;6553;48.412;9.514;2022-10-04T10:11:12;3.67;;;1.90;;
12976;SDS011;6553;48.412;9.514;2022-10-04T10:14:30;2.47;;;1.75;;
12976;SDS011;6553;48.412;9.514;2022-10-04T10:29:14;3.90;;;1.70;;
12976;SDS011;6553;48.412;9.514;2022-10-04T10:40:39;4.43;;;1.98;;
12976;SDS011;6553;48.412;9.514;2022-10-04T10:59:02;3.22;;;1.90;;
12976;SDS011;6553;48.412;9.514;2022-10-04T11:28:21;4.38;;;1.70;;
12976;SDS011;6553;48.412;9.514;2022-10-04T11:31:23;5.00;;;2.05;;
12976;SDS011;6553;48.412;9.514;2022-10-04T11:34:46;5.70;;;2.03;;
12976;SDS011;6553;48.412;9.514;2022-10-04T11:46:35;3.85;;;1.60;;
12976;SDS011;6553;48.412;9.514;2022-10-04T12:04:34;4.75;;;1.70;;
12976;SDS011;6553;48.412;9.514;2022-10-04T12:10:36;5.05;;;1.77;;
12976;SDS011;6553;48.412;9.514;2022-10-04T12:16:43;3.88;;;1.88;;
12976;SDS011;6553;48.412;9.514;2022-10-04T12:22:37;2.63;;;1.45;;
12976;SDS011;6553;48.412;9.514;2022-10-04T12:31:22;6.82;;;1.95;;
12976;SDS011;6553;48.412;9.514;2022-10-04T12:34:01;6.40;;;1.70;;
12976;SDS011;6553;48.412;9.514;2022-10-04T12:42:54;2.58;;;1.50;;
12976;SDS011;6553;48.412;9.514;2022-10-04T12:52:10;4.80;;;1.60;;
12976;SDS011;6553;48.412;9.514;2022-10-04T12:58:14;2.40;;;1.42;;
12976;SDS011;6553;48.412;9.514;2022-10-04T13:01:15;3.00;;;1.70;;
12976;SDS011;6553;48.412;9.514;2022-10-04T13:04:33;1.90;;;1.27;;
12976;SDS011;6553;48.412;9.514;2022-10-04T13:09:51;2.17;;;1.27;;
12976;SDS011;6553;48.412;9.514;2022-10-04T13:12:55;4.55;;;1.30;;
12976;SDS011;6553;48.412;9.514;2022-10-04T13:19:02;5.20;;;1.58;;
12976;SDS011;6553;48.412;9.514;2022-10-04T13:28:05;4.70;;;1.50;;
12976;SDS011;6553;48.412;9.514;2022-10-04T13:33:34;3.42;;;1.55;;
12976;SDS011;6553;48.412;9.514;2022-10-04T13:36:47;5.38;;;2.08;;
12976;SDS011;6553;48.412;9.514;2022-10-04T13:42:06;4.30;;;1.50;;
12976;SDS011;6553;48.412;9.514;2022-10-04T13:44:55;3.60;;;1.42;;
12976;SDS011;6553;48.412;9.514;2022-10-04T13:47:53;5.22;;;1.60;;
12976;SDS011;6553;48.412;9.514;2022-10-04T13:50:41;5.22;;;1.50;;
12976;SDS011;6553;48.412;9.514;2022-10-04T13:56:57;2.42;;;1.48;;
12976;SDS011;6553;48.412;9.514;2022-10-04T14:00:02;3.80;;;1.65;;
12976;SDS011;6553;48.412;9.514;2022-10-04T14:28:27;12.88;;;2.28;;
12976;SDS011;6553;48.412;9.514;2022-10-04T14:31:35;8.77;;;3.08;;
12976;SDS011;6553;48.412;9.514;2022-10-04T15:03:46;25.65;;;4.45;;
12976;SDS011;6553;48.412;9.514;2022-10-04T15:06:50;22.75;;;3.92;;
12976;SDS011;6553;48.412;9.514;2022-10-04T15:23:28;24.58;;;3.85;;
12976;SDS011;6553;48.412;9.514;2022-10-04T15:31:22;14.32;;;4.50;;
12976;SDS011;6553;48.412;9.514;2022-10-04T15:40:12;16.75;;;4.10;;
12976;SDS011;6553;48.412;9.514;2022-10-04T15:43:19;10.60;;;2.78;;
12976;SDS011;6553;48.412;9.514;2022-10-04T16:00:47;12.43;;;4.07;;
12976;SDS011;6553;48.412;9.514;2022-10-04T16:12:22;9.48;;;3.08;;
12976;SDS011;6553;48.412;9.514;2022-10-04T16:21:17;13.93;;;3.22;;
12976;SDS011;6553;48.412;9.514;2022-10-04T16:32:11;11.57;;;2.97;;
12976;SDS011;6553;48.412;9.514;2022-10-04T16:38:26;5.93;;;3.10;;
12976;SDS011;6553;48.412;9.514;2022-10-04T16:48:55;9.65;;;3.33;;
12976;SDS011;6553;48.412;9.514;2022-10-04T16:54:29;8.55;;;3.08;;
12976;SDS011;6553;48.412;9.514;2022-10-04T16:57:21;9.82;;;3.05;;
12976;SDS011;6553;48.412;9.514;2022-10-04T16:59:49;7.95;;;3.10;;
12976;SDS011;6553;48.412;9.514;2022-10-04T17:02:42;11.85;;;2.85;;
12976;SDS011;6553;48.412;9.514;2022-10-04T17:08:45;9.10;;;2.58;;
12976;SDS011;6553;48.412;9.514;2022-10-04T17:17:54;9.48;;;2.70;;
12976;SDS011;6553;48.412;9.514;2022-10-04T17:29:15;8.65;;;3.05;;
12976;SDS011;6553;48.412;9.514;2022-10-04T17:38:01;6.07;;;2.67;;
12976;SDS011;6553;48.412;9.514;2022-10-04T17:41:13;7.40;;;2.95;;
12976;SDS011;6553;48.412;9.514;2022-10-04T17:47:24;7.70;;;2.88;;
12976;SDS011;6553;48.412;9.514;2022-10-04T17:50:20;7.18;;;2.75;;
12976;SDS011;6553;48.412;9.514;2022-10-04T17:53:24;4.38;;;2.58;;
12976;SDS011;6553;48.412;9.514;2022-10-04T17:56:21;8.02;;;3.25;;
12976;SDS011;6553;48.412;9.514;2022-10-04T17:59:13;8.27;;;3.05;;
12976;SDS011;6553;48.412;9.514;2022-10-04T18:01:46;7.60;;;3.05;;
12976;SDS011;6553;48.412;9.514;2022-10-04T18:04:28;5.25;;;2.50;;
12976;SDS011;6553;48.412;9.514;2022-10-04T18:07:03;5.45;;;2.80;;
12976;SDS011;6553;48.412;9.514;2022-10-04T18:09:44;5.18;;;2.80;;
12976;SDS011;6553;48.412;9.514;2022-10-04T18:12:33;4.77;;;3.07;;
12976;SDS011;6553;48.412;9.514;2022-10-04T18:18:07;5.70;;;3.30;;
12976;SDS011;6553;48.412;9.514;2022-10-04T18:23:20;5.68;;;2.83;;
12976;SDS011;6553;48.412;9.514;2022-10-04T18:25:53;7.18;;;2.97;;
12976;SDS011;6553;48.412;9.514;2022-10-04T18:28:28;5.55;;;2.72;;
12976;SDS011;6553;48.412;9.514;2022-10-04T18:30:57;5.45;;;2.97;;
12976;SDS011;6553;48.412;9.514;2022-10-04T18:36:18;4.15;;;2.65;;
12976;SDS011;6553;48.412;9.514;2022-10-04T18:41:42;5.60;;;2.92;;
12976;SDS011;6553;48.412;9.514;2022-10-04T18:44:27;6.50;;;2.80;;
12976;SDS011;6553;48.412;9.514;2022-10-04T18:47:16;5.72;;;3.00;;
12976;SDS011;6553;48.412;9.514;2022-10-04T18:49:53;6.00;;;2.30;;
12976;SDS011;6553;48.412;9.514;2022-10-04T18:52:32;4.68;;;2.85;;
12976;SDS011;6553;48.412;9.514;2022-10-04T18:55:29;5.47;;;2.88;;
12976;SDS011;6553;48.412;9.514;2022-10-04T19:02:11;5.90;;;3.00;;
12976;SDS011;6553;48.412;9.514;2022-10-04T19:04:56;2.92;;;2.40;;
12976;SDS011;6553;48.412;9.514;2022-10-04T19:11:15;4.70;;;2.83;;
12976;SDS011;6553;48.412;9.514;2022-10-04T19:16:59;5.90;;;2.95;;
12976;SDS011;6553;48.412;9.514;2022-10-04T19:22:03;5.57;;;3.28;;
12976;SDS011;6553;48.412;9.514;2022-10-04T19:28:19;3.58;;;2.97;;
12976;SDS011;6553;48.412;9.514;2022-10-04T19:31:03;3.90;;;2.85;;
12976;SDS011;6553;48.412;9.514;2022-10-04T19:33:55;5.28;;;2.95;;
12976;SDS011;6553;48.412;9.514;2022-10-04T19:42:21;6.20;;;3.25;;
12976;SDS011;6553;48.412;9.514;2022-10-04T19:47:56;4.53;;;3.03;;
12976;SDS011;6553;48.412;9.514;2022-10-04T19:50:34;5.63;;;2.70;;
12976;SDS011;6553;48.412;9.514;2022-10-04T20:01:11;4.57;;;3.00;;
12976;SDS011;6553;48.412;9.514;2022-10-04T20:03:40;5.60;;;2.97;;
12976;SDS011;6553;48.412;9.514;2022-10-04T20:06:06;4.70;;;2.90;;
12976;SDS011;6553;48.412;9.514;2022-10-04T20:11:55;3.75;;;2.88;;
12976;SDS011;6553;48.412;9.514;2022-10-04T20:21:52;3.88;;;2.30;;
12976;SDS011;6553;48.412;9.514;2022-10-04T20:27:04;7.38;;;3.15;;
12976;SDS011;6553;48.412;9.514;2022-10-04T20:34:51;3.30;;;2.70;;
12976;SDS011;6553;48.412;9.514;2022-10-04T20:37:19;4.00;;;2.80;;
12976;SDS011;6553;48.412;9.514;2022-10-04T20:42:31;3.95;;;2.90;;
12976;SDS011;6553;48.412;9.514;2022-10-04T20:50:16;4.63;;;3.00;;
12976;SDS011;6553;48.412;9.514;2022-10-04T20:53:18;3.88;;;3.22;;
12976;SDS011;6553;48.412;9.514;2022-10-04T20:55:47;4.30;;;2.92;;
12976;SDS011;6553;48.412;9.514;2022-10-04T20:58:32;4.25;;;2.83;;
12976;SDS011;6553;48.412;9.514;2022-10-04T21:04:11;5.03;;;3.45;;
12976;SDS011;6553;48.412;9.514;2022-10-04T21:06:52;4.25;;;3.20;;
12976;SDS011;6553;48.412;9.514;2022-10-04T21:09:24;3.70;;;2.85;;
12976;SDS011;6553;48.412;9.514;2022-10-04T21:11:54;4.05;;;3.00;;
12976;SDS011;6553;48.412;9.514;2022-10-04T21:14:28;3.88;;;2.95;;
12976;SDS011;6553;48.412;9.514;2022-10-04T21:17:01;4.30;;;2.67;;
12976;SDS011;6553;48.412;9.514;2022-10-04T21:19:52;4.15;;;3.17;;
12976;SDS011;6553;48.412;9.514;2022-10-04T21:29:57;4.63;;;2.88;;
12976;SDS011;6553;48.412;9.514;2022-10-04T21:32:34;3.63;;;3.20;;
12976;SDS011;6553;48.412;9.514;2022-10-04T21:35:01;4.80;;;2.90;;
12976;SDS011;6553;48.412;9.514;2022-10-04T21:37:30;3.83;;;2.85;;
12976;SDS011;6553;48.412;9.514;2022-10-04T21:39:56;3.47;;;2.60;;
12976;SDS011;6553;48.412;9.514;2022-10-04T21:42:22;4.75;;;3.05;;
12976;SDS011;6553;48.412;9.514;2022-10-04T21:44:48;6.15;;;3.20;;
12976;SDS011;6553;48.412;9.514;2022-10-04T21:47:14;4.35;;;3.20;;
12976;SDS011;6553;48.412;9.514;2022-10-04T21:49:40;5.07;;;3.17;;
12976;SDS011;6553;48.412;9.514;2022-10-04T21:52:05;4.50;;;3.17;;
12976;SDS011;6553;48.412;9.514;2022-10-04T21:54:32;4.93;;;3.03;;
12976;SDS011;6553;48.412;9.514;2022-10-04T21:56:58;3.47;;;2.83;;
12976;SDS011;6553;48.412;9.514;2022-10-04T21:59:24;4.03;;;3.08;;
12976;SDS011;6553;48.412;9.514;2022-10-04T22:01:50;6.68;;;2.75;;
12976;SDS011;6553;48.412;9.514;2022-10-04T22:04:16;6.80;;;2.90;;
12976;SDS011;6553;48.412;9.514;2022-10-04T22:06:42;5.25;;;3.30;;
12976;SDS011;6553;48.412;9.514;2022-10-04T22:09:08;3.95;;;3.08;;
12976;SDS011;6553;48.412;9.514;2022-10-04T22:11:35;3.20;;;2.65;;
12976;SDS011;6553;48.412;9.514;2022-10-04T22:14:01;4.15;;;3.15;;
12976;SDS011;6553;48.412;9.514;2022-10-04T22:16:27;6.80;;;3.13;;
12976;SDS011;6553;48.412;9.514;2022-10-04T22:18:53;4.28;;;2.95;;
12976;SDS011;6553;48.412;9.514;2022-10-04T22:21:18;4.30;;;2.78;;
12976;SDS011;6553;48.412;9.514;2022-10-04T22:23:44;3.92;;;2.90;;
12976;SDS011;6553;48.412;9.514;2022-10-04T22:26:17;3.00;;;2.80;;
12976;SDS011;6553;48.412;9.514;2022-10-04T22:28:46;3.35;;;2.50;;
12976;SDS011;6553;48.412;9.514;2022-10-04T22:31:16;3.47;;;3.08;;
12976;SDS011;6553;48.412;9.514;2022-10-04T22:33:49;4.22;;;2.70;;
12976;SDS011;6553;48.412;9.514;2022-10-04T22:36:18;3.25;;;2.60;;
12976;SDS011;6553;48.412;9.514;2022-10-04T22:41:54;3.42;;;2.92;;
12976;SDS011;6553;48.412;9.514;2022-10-04T22:44:22;3.00;;;2.70;;
12976;SDS011;6553;48.412;9.514;2022-10-04T22:46:54;3.28;;;2.72;;
12976;SDS011;6553;48.412;9.514;2022-10-04T22:49:24;2.65;;;2.45;;
12976;SDS011;6553;48.412;9.514;2022-10-04T22:51:56;2.55;;;2.35;;
12976;SDS011;6553;48.412;9.514;2022-10-04T22:54:26;4.85;;;2.58;;
12976;SDS011;6553;48.412;9.514;2022-10-04T22:56:56;4.38;;;2.67;;
12976;SDS011;6553;48.412;9.514;2022-10-04T22:59:26;3.25;;;2.50;;
12976;SDS011;6553;48.412;9.514;2022-10-04T23:02:12;3.40;;;2.75;;
12976;SDS011;6553;48.412;9.514;2022-10-04T23:04:53;3.28;;;2.30;;
12976;SDS011;6553;48.412;9.514;2022-10-04T23:07:21;3.17;;;2.83;;
12976;SDS011;6553;48.412;9.514;2022-10-04T23:09:47;2.50;;;2.22;;
12976;SDS011;6553;48.412;9.514;2022-10-04T23:12:13;3.20;;;2.50;;
12976;SDS011;6553;48.412;9.514;2022-10-04T23:14:39;2.40;;;2.20;;
12976;SDS011;6553;48.412;9.514;2022-10-04T23:17:51;2.72;;;2.50;;
12976;SDS011;6553;48.412;9.514;2022-10-04T23:19:55;4.97;;;2.95;;
12976;SDS011;6553;48.412;9.514;2022-10-04T23:22:38;4.75;;;2.58;;
12976;SDS011;6553;48.412;9.514;2022-10-04T23:25:18;3.30;;;2.58;;
12976;SDS011;6553;48.412;9.514;2022-10-04T23:27:53;3.10;;;2.65;;
12976;SDS011;6553;48.412;9.514;2022-10-04T23:30:25;3.75;;;3.00;;
12976;SDS011;6553;48.412;9.514;2022-10-04T23:32:51;3.03;;;2.58;;
12976;SDS011;6553;48.412;9.514;2022-10-04T23:35:22;3.42;;;2.60;;
12976;SDS011;6553;48.412;9.514;2022-10-04T23:37:53;3.70;;;2.65;;
12976;SDS011;6553;48.412;9.514;2022-10-04T23:40:20;3.05;;;2.28;;
12976;SDS011;6553;48.412;9.514;2022-10-04T23:42:49;3.30;;;2.63;;
12976;SDS011;6553;48.412;9.514;2022-10-04T23:45:20;2.78;;;2.42;;
12976;SDS011;6553;48.412;9.514;2022-10-04T23:47:49;3.40;;;2.42;;
12976;SDS011;6553;48.412;9.514;2022-10-04T23:50:23;2.85;;;2.65;;
12976;SDS011;6553;48.412;9.514;2022-10-04T23:52:59;4.10;;;3.00;;
12976;SDS011;6553;48.412;9.514;2022-10-04T23:55:35;2.95;;;2.50;;
12976;SDS011;6553;48.412;9.514;2022-10-04T23:58:18;3.20;;;2.30;;
